Time;durP1;ratioP1;P1;durP2;ratioP2;P2;SDS_P1;SDS_P2;PMS_P1;PMS_P2;Temp;Humidity;BMP_temperature;BMP_pressure;BME280_temperature;BME280_humidity;BME280_pressure;Samples;Min_cycle;Max_cycle;Signal;HPM_P1;HPM_P2
2023/12/16 00:01:07;;;;;;;0.20;0.20;;;;;;;;;;6251400;28;20020;-74
2023/12/16 00:04:07;;;;;;;0.20;0.20;;;;;;;;;;6245756;28;20060;-74
2023/12/16 00:07:08;;;;;;;0.20;0.20;;;;;;;;;;6246347;28;20120;-74
2023/12/16 00:10:09;;;;;;;0.20;0.20;;;;;;;;;;6251351;28;20097;-74
2023/12/16 00:13:10;;;;;;;0.20;0.20;;;;;;;;;;6268814;28;20044;-74
2023/12/16 00:16:10;;;;;;;0.20;0.20;;;;;;;;;;6272768;28;20395;-74
2023/12/16 00:19:11;;;;;;;0.20;0.20;;;;;;;;;;6256539;28;20472;-74
2023/12/16 00:22:11;;;;;;;0.20;0.20;;;;;;;;;;6267557;28;20114;-74
2023/12/16 00:25:12;;;;;;;0.20;0.20;;;;;;;;;;6253750;28;20025;-74
2023/12/16 00:28:12;;;;;;;0.20;0.20;;;;;;;;;;6265194;28;20140;-74
2023/12/16 00:31:12;;;;;;;0.20;0.20;;;;;;;;;;6253015;28;20021;-74
2023/12/16 00:34:12;;;;;;;0.20;0.20;;;;;;;;;;6245077;28;20029;-74
2023/12/16 00:37:13;;;;;;;0.20;0.20;;;;;;;;;;6257061;28;20078;-74
2023/12/16 00:40:13;;;;;;;0.20;0.20;;;;;;;;;;6252619;28;20333;-74
2023/12/16 00:43:13;;;;;;;0.20;0.20;;;;;;;;;;6264014;28;20025;-74
2023/12/16 00:46:13;;;;;;;0.20;0.20;;;;;;;;;;6257714;28;20052;-76
2023/12/16 00:49:14;;;;;;;0.27;0.27;;;;;;;;;;6257220;28;20491;-76
2023/12/16 00:52:14;;;;;;;0.30;0.30;;;;;;;;;;6268709;28;20395;-76
2023/12/16 00:55:14;;;;;;;0.20;0.20;;;;;;;;;;6268644;28;20025;-77
2023/12/16 00:58:14;;;;;;;0.20;0.20;;;;;;;;;;6257997;28;20399;-74
2023/12/16 01:01:15;;;;;;;0.20;0.20;;;;;;;;;;6258066;28;20016;-74
2023/12/16 01:04:15;;;;;;;0.20;0.20;;;;;;;;;;6264525;28;20084;-84
2023/12/16 01:07:15;;;;;;;0.20;0.20;;;;;;;;;;6247984;28;20454;-84
2023/12/16 01:10:15;;;;;;;0.20;0.20;;;;;;;;;;6246449;28;20048;-84
2023/12/16 01:13:17;;;;;;;0.20;0.20;;;;;;;;;;6246624;28;20085;-84
2023/12/16 01:16:17;;;;;;;0.20;0.20;;;;;;;;;;6247563;28;20108;-84
2023/12/16 01:19:18;;;;;;;0.20;0.20;;;;;;;;;;6246184;28;20475;-84
2023/12/16 01:22:18;;;;;;;0.20;0.20;;;;;;;;;;6273759;28;20471;-75
2023/12/16 01:25:18;;;;;;;0.20;0.20;;;;;;;;;;6273776;28;20037;-75
2023/12/16 01:28:19;;;;;;;0.20;0.20;;;;;;;;;;6273918;28;20054;-75
2023/12/16 01:31:19;;;;;;;0.20;0.20;;;;;;;;;;6265471;28;20050;-75
2023/12/16 01:34:19;;;;;;;0.20;0.20;;;;;;;;;;6265883;28;20475;-75
2023/12/16 01:37:21;;;;;;;0.20;0.20;;;;;;;;;;6245918;28;20025;-75
2023/12/16 01:40:21;;;;;;;0.20;0.20;;;;;;;;;;6247712;28;20704;-76
2023/12/16 01:43:21;;;;;;;0.20;0.20;;;;;;;;;;6253371;28;20099;-76
2023/12/16 01:46:22;;;;;;;0.20;0.20;;;;;;;;;;6263402;28;20499;-76
2023/12/16 01:49:23;;;;;;;0.20;0.20;;;;;;;;;;6256712;28;20384;-76
2023/12/16 01:52:24;;;;;;;0.20;0.20;;;;;;;;;;6261196;28;20104;-76
2023/12/16 01:55:24;;;;;;;0.20;0.20;;;;;;;;;;6258389;28;20036;-76
2023/12/16 01:58:24;;;;;;;0.20;0.20;;;;;;;;;;6283684;28;20056;-75
2023/12/16 02:01:25;;;;;;;0.20;0.20;;;;;;;;;;6254243;28;20356;-76
2023/12/16 02:04:26;;;;;;;0.20;0.20;;;;;;;;;;6269858;28;20045;-75
2023/12/16 02:07:26;;;;;;;0.20;0.20;;;;;;;;;;6261085;28;20031;-76
2023/12/16 02:10:26;;;;;;;0.20;0.20;;;;;;;;;;6269239;28;20021;-76
2023/12/16 02:13:26;;;;;;;0.20;0.20;;;;;;;;;;6256150;28;20023;-84
2023/12/16 02:16:27;;;;;;;0.20;0.20;;;;;;;;;;6265932;28;20029;-84
2023/12/16 02:19:28;;;;;;;0.20;0.20;;;;;;;;;;6244806;28;20025;-83
2023/12/16 02:22:28;;;;;;;0.20;0.20;;;;;;;;;;6265700;28;20561;-83
2023/12/16 02:25:28;;;;;;;0.20;0.20;;;;;;;;;;6279378;28;20275;-83
2023/12/16 02:28:30;;;;;;;0.20;0.20;;;;;;;;;;6245155;28;20014;-83
2023/12/16 02:31:31;;;;;;;0.20;0.20;;;;;;;;;;6268725;28;20104;-83
2023/12/16 02:34:31;;;;;;;0.20;0.20;;;;;;;;;;6262375;28;20013;-83
2023/12/16 02:37:32;;;;;;;0.20;0.20;;;;;;;;;;6279968;28;20092;-82
2023/12/16 02:40:32;;;;;;;0.20;0.20;;;;;;;;;;6283036;28;20111;-82
2023/12/16 02:43:33;;;;;;;0.20;0.20;;;;;;;;;;6248160;28;20083;-82
2023/12/16 02:46:34;;;;;;;0.20;0.20;;;;;;;;;;6256643;28;20070;-82
2023/12/16 02:49:34;;;;;;;0.20;0.20;;;;;;;;;;6267631;28;20468;-82
2023/12/16 02:52:34;;;;;;;0.20;0.20;;;;;;;;;;6263192;28;20383;-82
2023/12/16 02:55:34;;;;;;;0.20;0.20;;;;;;;;;;6260036;28;20060;-82
2023/12/16 02:58:35;;;;;;;0.20;0.20;;;;;;;;;;6268692;28;20013;-82
2023/12/16 03:01:35;;;;;;;0.20;0.20;;;;;;;;;;6278880;28;20024;-81
2023/12/16 03:04:35;;;;;;;0.20;0.20;;;;;;;;;;6247959;28;20041;-82
2023/12/16 03:07:37;;;;;;;0.20;0.20;;;;;;;;;;6255554;28;20022;-82
2023/12/16 03:10:37;;;;;;;0.20;0.20;;;;;;;;;;6252839;28;20024;-82
2023/12/16 03:13:37;;;;;;;0.20;0.20;;;;;;;;;;6268167;28;20013;-82
2023/12/16 03:16:38;;;;;;;0.20;0.20;;;;;;;;;;6268521;28;20025;-82
2023/12/16 03:19:38;;;;;;;0.20;0.20;;;;;;;;;;6255311;28;20052;-81
2023/12/16 03:22:38;;;;;;;0.20;0.20;;;;;;;;;;6266307;28;20021;-82
2023/12/16 03:25:39;;;;;;;0.20;0.20;;;;;;;;;;6262737;28;20494;-81
2023/12/16 03:28:39;;;;;;;0.20;0.20;;;;;;;;;;6267857;28;20025;-81
2023/12/16 03:31:39;;;;;;;0.20;0.20;;;;;;;;;;6268743;28;20095;-81
2023/12/16 03:34:40;;;;;;;0.20;0.20;;;;;;;;;;6244301;28;20010;-81
2023/12/16 03:37:40;;;;;;;0.20;0.20;;;;;;;;;;6241620;28;20009;-81
2023/12/16 03:40:40;;;;;;;0.20;0.20;;;;;;;;;;6257035;28;20020;-81
2023/12/16 03:43:41;;;;;;;0.20;0.20;;;;;;;;;;6249725;28;20468;-79
2023/12/16 03:46:41;;;;;;;0.20;0.20;;;;;;;;;;6257225;28;20124;-80
2023/12/16 03:49:41;;;;;;;0.20;0.20;;;;;;;;;;6255535;28;20029;-81
2023/12/16 03:52:41;;;;;;;0.20;0.20;;;;;;;;;;6265112;28;20111;-81
2023/12/16 03:55:42;;;;;;;0.20;0.20;;;;;;;;;;6267231;28;20499;-81
2023/12/16 03:58:42;;;;;;;0.20;0.20;;;;;;;;;;6253429;28;20139;-81
2023/12/16 04:01:44;;;;;;;0.20;0.20;;;;;;;;;;6274566;28;20087;-82
2023/12/16 04:04:44;;;;;;;0.20;0.20;;;;;;;;;;6272322;28;20084;-82
2023/12/16 04:07:44;;;;;;;0.20;0.20;;;;;;;;;;6255207;28;20039;-82
2023/12/16 04:10:44;;;;;;;0.20;0.20;;;;;;;;;;6265920;28;20539;-82
2023/12/16 04:13:45;;;;;;;0.20;0.20;;;;;;;;;;6246395;28;20555;-82
2023/12/16 04:16:45;;;;;;;0.20;0.20;;;;;;;;;;6256779;28;20424;-82
2023/12/16 04:19:48;;;;;;;0.20;0.20;;;;;;;;;;6242658;28;20025;-82
2023/12/16 04:22:49;;;;;;;0.20;0.20;;;;;;;;;;6267878;28;20143;-82
2023/12/16 04:25:49;;;;;;;0.20;0.20;;;;;;;;;;6247084;28;20026;-82
2023/12/16 04:28:49;;;;;;;0.20;0.20;;;;;;;;;;6242713;28;20598;-82
2023/12/16 04:31:50;;;;;;;0.20;0.20;;;;;;;;;;6243136;28;20013;-82
2023/12/16 04:34:50;;;;;;;0.20;0.20;;;;;;;;;;6242419;28;20016;-82
2023/12/16 04:37:50;;;;;;;0.20;0.20;;;;;;;;;;6256542;28;20492;-82
2023/12/16 04:40:50;;;;;;;0.20;0.20;;;;;;;;;;6245428;28;20486;-82
2023/12/16 04:43:53;;;;;;;0.20;0.20;;;;;;;;;;6251171;28;20397;-82
2023/12/16 04:46:53;;;;;;;0.20;0.20;;;;;;;;;;6263695;28;20063;-82
2023/12/16 04:49:53;;;;;;;0.20;0.20;;;;;;;;;;6268342;28;20029;-82
2023/12/16 04:52:53;;;;;;;0.20;0.20;;;;;;;;;;6256426;28;20319;-82
2023/12/16 04:55:54;;;;;;;0.20;0.20;;;;;;;;;;6260632;28;20040;-81
2023/12/16 04:58:54;;;;;;;0.20;0.20;;;;;;;;;;6252230;28;20055;-81
2023/12/16 05:01:54;;;;;;;0.20;0.20;;;;;;;;;;6256436;28;20022;-81
2023/12/16 05:04:54;;;;;;;0.20;0.20;;;;;;;;;;6247177;28;20061;-81
2023/12/16 05:07:55;;;;;;;0.20;0.20;;;;;;;;;;6254037;28;20013;-80
2023/12/16 05:10:55;;;;;;;0.20;0.20;;;;;;;;;;6255837;28;20053;-81
2023/12/16 05:13:55;;;;;;;0.20;0.20;;;;;;;;;;6246548;28;20026;-87
2023/12/16 05:16:55;;;;;;;0.20;0.20;;;;;;;;;;6247338;28;20075;-87
2023/12/16 05:19:56;;;;;;;0.20;0.20;;;;;;;;;;6272849;28;20017;-88
2023/12/16 05:22:56;;;;;;;0.20;0.20;;;;;;;;;;6272636;28;20021;-88
2023/12/16 05:25:56;;;;;;;0.20;0.20;;;;;;;;;;6271667;28;20025;-89
2023/12/16 05:28:57;;;;;;;0.20;0.20;;;;;;;;;;6273821;28;20387;-88
2023/12/16 05:31:57;;;;;;;0.20;0.20;;;;;;;;;;6278875;28;20017;-87
2023/12/16 05:34:57;;;;;;;0.20;0.20;;;;;;;;;;6280319;28;20027;-88
2023/12/16 05:37:58;;;;;;;0.20;0.20;;;;;;;;;;6279496;28;20052;-87
2023/12/16 05:40:58;;;;;;;0.20;0.20;;;;;;;;;;6249229;28;20013;-87
2023/12/16 05:43:59;;;;;;;0.20;0.20;;;;;;;;;;6252601;28;20021;-87
2023/12/16 05:46:59;;;;;;;0.20;0.20;;;;;;;;;;6255174;28;20124;-87
2023/12/16 05:49:59;;;;;;;0.20;0.20;;;;;;;;;;6257260;28;20403;-87
2023/12/16 05:52:59;;;;;;;0.20;0.20;;;;;;;;;;6253859;28;20112;-87
2023/12/16 05:56:00;;;;;;;0.20;0.20;;;;;;;;;;6270284;28;20025;-87
2023/12/16 05:59:00;;;;;;;0.20;0.20;;;;;;;;;;6259314;28;20318;-87
2023/12/16 06:02:00;;;;;;;0.20;0.20;;;;;;;;;;6256782;28;20558;-87
2023/12/16 06:05:01;;;;;;;0.20;0.20;;;;;;;;;;6246002;28;20057;-87
2023/12/16 06:08:02;;;;;;;0.20;0.20;;;;;;;;;;6245813;28;20034;-87
2023/12/16 06:11:02;;;;;;;0.20;0.20;;;;;;;;;;6247027;28;20040;-88
2023/12/16 06:14:02;;;;;;;0.20;0.20;;;;;;;;;;6248248;28;20021;-88
2023/12/16 06:17:02;;;;;;;0.20;0.20;;;;;;;;;;6251397;28;20479;-87
2023/12/16 06:20:04;;;;;;;0.20;0.20;;;;;;;;;;6244916;28;20028;-87
2023/12/16 06:23:05;;;;;;;0.20;0.20;;;;;;;;;;6259553;28;20128;-87
2023/12/16 06:26:05;;;;;;;0.20;0.20;;;;;;;;;;6252566;28;20086;-87
2023/12/16 06:29:05;;;;;;;0.20;0.20;;;;;;;;;;6251084;28;20017;-87
2023/12/16 06:32:06;;;;;;;0.20;0.20;;;;;;;;;;6244105;28;20048;-86
2023/12/16 06:35:06;;;;;;;0.20;0.20;;;;;;;;;;6249634;28;20028;-86
2023/12/16 06:38:06;;;;;;;0.20;0.20;;;;;;;;;;6257688;28;20110;-85
2023/12/16 06:41:07;;;;;;;0.20;0.20;;;;;;;;;;6263378;28;20124;-85
2023/12/16 06:44:07;;;;;;;0.20;0.20;;;;;;;;;;6258473;28;20063;-85
2023/12/16 06:47:07;;;;;;;0.20;0.20;;;;;;;;;;6243505;28;20056;-86
2023/12/16 06:50:08;;;;;;;0.20;0.20;;;;;;;;;;6252807;28;20021;-86
2023/12/16 06:53:08;;;;;;;0.20;0.20;;;;;;;;;;6245926;28;20549;-86
2023/12/16 06:56:09;;;;;;;0.20;0.20;;;;;;;;;;6262683;28;20036;-85
2023/12/16 06:59:09;;;;;;;0.20;0.20;;;;;;;;;;6250334;28;20474;-86
2023/12/16 07:02:09;;;;;;;0.20;0.20;;;;;;;;;;6252377;28;20025;-86
2023/12/16 07:05:11;;;;;;;0.20;0.20;;;;;;;;;;6262593;28;20045;-85
2023/12/16 07:08:13;;;;;;;0.20;0.20;;;;;;;;;;6264529;28;20028;-86
2023/12/16 07:11:13;;;;;;;;;;;;;;;;;;6258470;28;20029;-85
2023/12/16 07:14:13;;;;;;;0.20;0.20;;;;;;;;;;6246230;28;19913;-85
2023/12/16 07:17:13;;;;;;;0.20;0.20;;;;;;;;;;6263666;28;20029;-85
2023/12/16 07:20:14;;;;;;;0.20;0.20;;;;;;;;;;6245537;28;20560;-84
2023/12/16 07:23:14;;;;;;;0.20;0.20;;;;;;;;;;6243174;28;20039;-84
2023/12/16 07:26:14;;;;;;;0.20;0.20;;;;;;;;;;6244093;28;20033;-84
2023/12/16 07:29:14;;;;;;;0.20;0.20;;;;;;;;;;6255591;28;20020;-84
2023/12/16 07:32:15;;;;;;;0.20;0.20;;;;;;;;;;6257348;28;20020;-84
2023/12/16 07:35:15;;;;;;;0.20;0.20;;;;;;;;;;6267274;28;20116;-84
2023/12/16 07:38:16;;;;;;;0.20;0.20;;;;;;;;;;6258656;28;20514;-84
2023/12/16 07:41:16;;;;;;;0.20;0.20;;;;;;;;;;6277306;28;20020;-84
2023/12/16 07:44:16;;;;;;;0.20;0.20;;;;;;;;;;6270396;28;20471;-83
2023/12/16 07:47:17;;;;;;;0.20;0.20;;;;;;;;;;6277932;28;20459;-83
2023/12/16 07:50:19;;;;;;;0.20;0.20;;;;;;;;;;6258603;28;20399;-83
2023/12/16 07:53:21;;;;;;;0.20;0.20;;;;;;;;;;6266551;28;20341;-84
2023/12/16 07:56:30;;;;;;;0.20;0.20;;;;;;;;;;6260067;28;20070;-83
2023/12/16 07:59:30;;;;;;;0.20;0.20;;;;;;;;;;6264440;28;20021;-83
2023/12/16 08:02:31;;;;;;;0.20;0.20;;;;;;;;;;6244208;28;20079;-83
2023/12/16 08:05:31;;;;;;;0.20;0.20;;;;;;;;;;6263885;28;20068;-83
2023/12/16 08:08:31;;;;;;;0.20;0.20;;;;;;;;;;6258088;28;20056;-82
2023/12/16 08:11:33;;;;;;;0.20;0.20;;;;;;;;;;6255950;28;21078;-82
2023/12/16 08:14:34;;;;;;;0.20;0.20;;;;;;;;;;6254266;28;20479;-82
2023/12/16 08:17:35;;;;;;;0.20;0.20;;;;;;;;;;6258263;28;20032;-82
2023/12/16 08:20:35;;;;;;;0.20;0.20;;;;;;;;;;6270977;28;20037;-82
2023/12/16 08:23:35;;;;;;;0.20;0.20;;;;;;;;;;6247689;28;20052;-82
2023/12/16 08:26:36;;;;;;;0.20;0.20;;;;;;;;;;6256995;28;20511;-82
2023/12/16 08:29:37;;;;;;;0.20;0.20;;;;;;;;;;6248348;28;20025;-82
2023/12/16 08:32:38;;;;;;;0.20;0.20;;;;;;;;;;6254233;28;20419;-82
2023/12/16 08:35:42;;;;;;;0.20;0.20;;;;;;;;;;6252587;28;20064;-82
2023/12/16 08:38:44;;;;;;;0.20;0.20;;;;;;;;;;6241985;28;20028;-82
2023/12/16 08:41:45;;;;;;;0.20;0.20;;;;;;;;;;6242939;28;20034;-81
2023/12/16 08:44:45;;;;;;;0.20;0.20;;;;;;;;;;6263274;28;20029;-82
2023/12/16 08:47:45;;;;;;;0.20;0.20;;;;;;;;;;6242495;28;20025;-82
2023/12/16 08:50:45;;;;;;;0.20;0.20;;;;;;;;;;6241304;28;20018;-82
2023/12/16 08:53:45;;;;;;;0.20;0.20;;;;;;;;;;6248312;28;20025;-82
2023/12/16 08:56:46;;;;;;;0.20;0.20;;;;;;;;;;6257845;28;20025;-82
2023/12/16 08:59:46;;;;;;;0.20;0.20;;;;;;;;;;6246773;28;20025;-81
2023/12/16 09:02:47;;;;;;;0.20;0.20;;;;;;;;;;6251268;28;20044;-81
2023/12/16 09:05:47;;;;;;;0.20;0.20;;;;;;;;;;6257978;28;20099;-82
2023/12/16 09:08:47;;;;;;;0.20;0.20;;;;;;;;;;6258290;28;20021;-82
2023/12/16 09:11:47;;;;;;;0.20;0.20;;;;;;;;;;6246979;28;20022;-82
2023/12/16 09:14:48;;;;;;;0.20;0.20;;;;;;;;;;6256481;28;20037;-82
2023/12/16 09:17:48;;;;;;;0.20;0.20;;;;;;;;;;6253158;28;20399;-82
2023/12/16 09:20:48;;;;;;;0.20;0.20;;;;;;;;;;6262552;28;20037;-82
2023/12/16 09:23:49;;;;;;;0.20;0.20;;;;;;;;;;6256809;28;20044;-82
2023/12/16 09:26:49;;;;;;;0.20;0.20;;;;;;;;;;6270616;28;20025;-82
2023/12/16 09:29:49;;;;;;;0.20;0.20;;;;;;;;;;6270927;28;20013;-82
2023/12/16 09:32:49;;;;;;;0.20;0.20;;;;;;;;;;6279075;28;20027;-82
2023/12/16 09:35:50;;;;;;;0.20;0.20;;;;;;;;;;6261083;28;20116;-82
2023/12/16 09:38:50;;;;;;;0.20;0.20;;;;;;;;;;6263320;28;20550;-82
2023/12/16 09:41:51;;;;;;;0.20;0.20;;;;;;;;;;6258738;28;20078;-82
2023/12/16 09:44:53;;;;;;;0.20;0.20;;;;;;;;;;6255893;28;20029;-82
2023/12/16 09:47:53;;;;;;;0.20;0.20;;;;;;;;;;6249385;28;20022;-82
2023/12/16 09:50:53;;;;;;;0.20;0.20;;;;;;;;;;6245571;28;20494;-82
2023/12/16 09:53:54;;;;;;;0.20;0.20;;;;;;;;;;6258438;28;20036;-82
2023/12/16 09:56:56;;;;;;;0.20;0.20;;;;;;;;;;6261574;28;20428;-82
2023/12/16 09:59:57;;;;;;;0.20;0.20;;;;;;;;;;6261507;28;20403;-82
2023/12/16 10:02:57;;;;;;;0.20;0.20;;;;;;;;;;6255508;28;20018;-77
2023/12/16 10:05:57;;;;;;;0.20;0.20;;;;;;;;;;6244950;28;20100;-77
2023/12/16 10:08:58;;;;;;;0.20;0.20;;;;;;;;;;6258837;28;20029;-77
2023/12/16 10:11:59;;;;;;;0.20;0.20;;;;;;;;;;6250033;28;20431;-78
2023/12/16 10:14:59;;;;;;;0.20;0.20;;;;;;;;;;6253093;28;20075;-77
2023/12/16 10:18:03;;;;;;;0.20;0.20;;;;;;;;;;6251165;28;20014;-77
2023/12/16 10:21:03;;;;;;;0.20;0.20;;;;;;;;;;6258944;28;20090;-77
2023/12/16 10:24:04;;;;;;;0.20;0.20;;;;;;;;;;6252641;28;20024;-77
2023/12/16 10:27:04;;;;;;;0.20;0.20;;;;;;;;;;6253165;28;20021;-77
2023/12/16 10:30:05;;;;;;;0.20;0.20;;;;;;;;;;6281600;28;20016;-77
2023/12/16 10:33:07;;;;;;;0.20;0.20;;;;;;;;;;6279806;28;20020;-77
2023/12/16 10:36:08;;;;;;;0.20;0.20;;;;;;;;;;6279208;28;20024;-77
2023/12/16 10:39:08;;;;;;;0.10;0.10;;;;;;;;;;6274572;28;20009;-77
2023/12/16 10:42:08;;;;;;;0.20;0.20;;;;;;;;;;6260027;28;20021;-82
2023/12/16 10:45:10;;;;;;;0.20;0.20;;;;;;;;;;6246977;28;20021;-82
2023/12/16 10:48:11;;;;;;;0.20;0.20;;;;;;;;;;6258651;28;20009;-81
2023/12/16 10:51:12;;;;;;;0.20;0.20;;;;;;;;;;6268779;28;20267;-82
2023/12/16 10:54:22;;;;;;;0.13;0.13;;;;;;;;;;6253022;28;20475;-82
2023/12/16 10:57:35;;;;;;;0.20;0.20;;;;;;;;;;6256445;28;20104;-82
2023/12/16 11:00:37;;;;;;;0.20;0.20;;;;;;;;;;6246286;28;20390;-81
2023/12/16 11:03:46;;;;;;;0.20;0.20;;;;;;;;;;6257663;28;20079;-82
2023/12/16 11:06:58;;;;;;;0.20;0.20;;;;;;;;;;6275013;28;20509;-82
2023/12/16 11:09:59;;;;;;;0.20;0.20;;;;;;;;;;6263469;28;20096;-82
2023/12/16 11:13:02;;;;;;;0.20;0.20;;;;;;;;;;6248073;28;20581;-82
2023/12/16 11:16:06;;;;;;;0.20;0.20;;;;;;;;;;6247488;28;20036;-81
2023/12/16 11:19:09;;;;;;;0.20;0.20;;;;;;;;;;6256729;28;20021;-82
2023/12/16 11:22:10;;;;;;;0.20;0.20;;;;;;;;;;6261331;28;20005;-82
2023/12/16 11:25:17;;;;;;;0.20;0.20;;;;;;;;;;6266743;28;20139;-83
2023/12/16 11:28:17;;;;;;;0.20;0.20;;;;;;;;;;6267553;28;20410;-82
2023/12/16 11:31:18;;;;;;;0.20;0.20;;;;;;;;;;6276783;28;20471;-82
2023/12/16 11:34:38;;;;;;;0.20;0.20;;;;;;;;;;6252870;28;20542;-82
2023/12/16 11:37:41;;;;;;;0.10;0.10;;;;;;;;;;6261384;28;20025;-82
2023/12/16 11:40:46;;;;;;;0.20;0.20;;;;;;;;;;6263161;28;20028;-82
2023/12/16 11:43:50;;;;;;;0.20;0.20;;;;;;;;;;6260623;28;20058;-77
2023/12/16 11:46:52;;;;;;;0.20;0.20;;;;;;;;;;6262134;28;20013;-78
2023/12/16 11:49:53;;;;;;;0.15;0.15;;;;;;;;;;6255199;28;20037;-78
2023/12/16 11:52:53;;;;;;;0.10;0.10;;;;;;;;;;6269636;28;20092;-78
2023/12/16 11:55:55;;;;;;;0.20;0.20;;;;;;;;;;6278266;28;20033;-78
2023/12/16 11:58:57;;;;;;;0.10;0.10;;;;;;;;;;6260499;28;20021;-77
2023/12/16 12:01:58;;;;;;;0.20;0.20;;;;;;;;;;6261154;28;20066;-77
2023/12/16 12:05:00;;;;;;;0.20;0.20;;;;;;;;;;6241983;28;20065;-77
2023/12/16 12:08:00;;;;;;;0.20;0.20;;;;;;;;;;6256917;28;20029;-77
2023/12/16 12:11:01;;;;;;;0.20;0.20;;;;;;;;;;6253508;28;20013;-77
2023/12/16 12:14:02;;;;;;;0.20;0.20;;;;;;;;;;6243290;28;20104;-77
2023/12/16 12:17:03;;;;;;;0.20;0.20;;;;;;;;;;6262636;28;20025;-77
2023/12/16 12:20:04;;;;;;;0.20;0.20;;;;;;;;;;6260302;28;20880;-77
2023/12/16 12:23:04;;;;;;;0.20;0.20;;;;;;;;;;6266674;28;20035;-77
2023/12/16 12:26:04;;;;;;;0.20;0.20;;;;;;;;;;6262619;28;20447;-76
2023/12/16 12:29:05;;;;;;;0.20;0.20;;;;;;;;;;6264516;28;20021;-77
2023/12/16 12:32:06;;;;;;;0.13;0.13;;;;;;;;;;6264586;28;20013;-76
2023/12/16 12:35:11;;;;;;;0.20;0.20;;;;;;;;;;6252968;28;20199;-77
2023/12/16 12:38:13;;;;;;;0.20;0.20;;;;;;;;;;6254657;28;20451;-77
2023/12/16 12:41:14;;;;;;;0.15;0.15;;;;;;;;;;6254059;28;20079;-77
2023/12/16 12:44:15;;;;;;;0.20;0.20;;;;;;;;;;6268382;28;20220;-77
2023/12/16 12:47:25;;;;;;;0.20;0.20;;;;;;;;;;6253848;28;20024;-77
2023/12/16 12:50:26;;;;;;;0.20;0.20;;;;;;;;;;6256886;28;20475;-77
2023/12/16 12:53:26;;;;;;;0.20;0.20;;;;;;;;;;6258329;28;20097;-82
2023/12/16 12:56:27;;;;;;;0.20;0.20;;;;;;;;;;6271042;28;20078;-82
2023/12/16 12:59:27;;;;;;;0.20;0.20;;;;;;;;;;6266547;28;20743;-82
2023/12/16 13:02:27;;;;;;;0.20;0.20;;;;;;;;;;6263893;28;20451;-77
2023/12/16 13:05:27;;;;;;;0.20;0.20;;;;;;;;;;6262684;28;20041;-77
2023/12/16 13:08:28;;;;;;;0.20;0.20;;;;;;;;;;6256023;28;20017;-77
2023/12/16 13:11:28;;;;;;;0.20;0.20;;;;;;;;;;6262497;28;20533;-77
2023/12/16 13:14:29;;;;;;;0.20;0.20;;;;;;;;;;6276864;28;20086;-77
2023/12/16 13:17:29;;;;;;;0.20;0.20;;;;;;;;;;6282494;28;20021;-77
2023/12/16 13:20:29;;;;;;;0.20;0.20;;;;;;;;;;6275510;28;20507;-77
2023/12/16 13:23:29;;;;;;;0.20;0.20;;;;;;;;;;6267950;28;20056;-77
2023/12/16 13:26:37;;;;;;;0.20;0.20;;;;;;;;;;6255331;28;20017;-77
2023/12/16 13:29:37;;;;;;;0.20;0.20;;;;;;;;;;6258707;28;20391;-77
2023/12/16 13:32:38;;;;;;;0.20;0.20;;;;;;;;;;6252841;28;20104;-77
2023/12/16 13:35:39;;;;;;;0.20;0.20;;;;;;;;;;6265259;28;20018;-77
2023/12/16 13:38:39;;;;;;;0.20;0.20;;;;;;;;;;6253684;28;20519;-77
2023/12/16 13:41:39;;;;;;;0.20;0.20;;;;;;;;;;6249121;28;20098;-77
2023/12/16 13:44:40;;;;;;;0.20;0.20;;;;;;;;;;6246661;28;20032;-77
2023/12/16 13:47:40;;;;;;;0.20;0.20;;;;;;;;;;6258359;28;20083;-78
2023/12/16 13:50:40;;;;;;;0.20;0.20;;;;;;;;;;6243795;28;20515;-77
2023/12/16 13:53:40;;;;;;;0.20;0.20;;;;;;;;;;6248241;28;20436;-77
2023/12/16 13:56:41;;;;;;;0.20;0.20;;;;;;;;;;6258515;28;20017;-78
2023/12/16 13:59:41;;;;;;;0.20;0.20;;;;;;;;;;6245091;28;20037;-78
2023/12/16 14:02:43;;;;;;;0.20;0.20;;;;;;;;;;6259940;28;20013;-77
2023/12/16 14:05:43;;;;;;;0.20;0.20;;;;;;;;;;6242277;28;20049;-78
2023/12/16 14:08:43;;;;;;;0.20;0.20;;;;;;;;;;6243535;28;20021;-78
2023/12/16 14:11:44;;;;;;;0.20;0.20;;;;;;;;;;6251403;28;20013;-81
2023/12/16 14:14:44;;;;;;;0.20;0.20;;;;;;;;;;6248988;28;20057;-82
2023/12/16 14:17:44;;;;;;;0.20;0.20;;;;;;;;;;6253236;28;20077;-82
2023/12/16 14:20:44;;;;;;;0.20;0.20;;;;;;;;;;6261878;28;20419;-83
2023/12/16 14:23:45;;;;;;;0.20;0.20;;;;;;;;;;6267055;28;20498;-82
2023/12/16 14:26:45;;;;;;;0.20;0.20;;;;;;;;;;6269096;28;20376;-82
2023/12/16 14:29:45;;;;;;;0.20;0.20;;;;;;;;;;6265522;28;20433;-82
2023/12/16 14:32:45;;;;;;;0.20;0.20;;;;;;;;;;6258789;28;20421;-82
2023/12/16 14:35:45;;;;;;;0.20;0.20;;;;;;;;;;6249950;28;20381;-82
2023/12/16 14:38:46;;;;;;;0.20;0.20;;;;;;;;;;6257485;28;20024;-82
2023/12/16 14:41:47;;;;;;;0.20;0.20;;;;;;;;;;6252728;28;20024;-82
2023/12/16 14:44:47;;;;;;;0.20;0.20;;;;;;;;;;6259517;28;20021;-82
2023/12/16 14:47:48;;;;;;;0.20;0.20;;;;;;;;;;6244789;28;20057;-82
2023/12/16 14:50:48;;;;;;;0.20;0.20;;;;;;;;;;6277717;28;20021;-82
2023/12/16 14:53:48;;;;;;;0.20;0.20;;;;;;;;;;6255006;28;20064;-83
2023/12/16 14:56:49;;;;;;;0.20;0.20;;;;;;;;;;6262187;28;20029;-82
2023/12/16 14:59:49;;;;;;;0.20;0.20;;;;;;;;;;6247420;28;20111;-82
2023/12/16 15:02:49;;;;;;;0.20;0.20;;;;;;;;;;6248030;28;20116;-82
2023/12/16 15:05:50;;;;;;;0.20;0.20;;;;;;;;;;6242583;28;20275;-82
2023/12/16 15:08:50;;;;;;;0.20;0.20;;;;;;;;;;6266378;28;20464;-82
2023/12/16 15:11:50;;;;;;;0.20;0.20;;;;;;;;;;6267568;28;20530;-77
2023/12/16 15:14:51;;;;;;;0.20;0.20;;;;;;;;;;6262458;28;20024;-76
2023/12/16 15:17:51;;;;;;;0.20;0.20;;;;;;;;;;6253420;28;20029;-77
2023/12/16 15:20:52;;;;;;;0.20;0.20;;;;;;;;;;6243374;28;20079;-76
2023/12/16 15:23:52;;;;;;;0.20;0.20;;;;;;;;;;6263717;28;20025;-82
2023/12/16 15:26:53;;;;;;;0.20;0.20;;;;;;;;;;6256376;28;20095;-82
2023/12/16 15:29:53;;;;;;;0.20;0.20;;;;;;;;;;6280046;28;20012;-80
2023/12/16 15:32:54;;;;;;;0.20;0.20;;;;;;;;;;6255345;28;20395;-79
2023/12/16 15:35:54;;;;;;;0.20;0.20;;;;;;;;;;6251241;28;20025;-80
2023/12/16 15:38:54;;;;;;;0.20;0.20;;;;;;;;;;6251061;28;20063;-80
2023/12/16 15:41:55;;;;;;;0.20;0.20;;;;;;;;;;6254426;28;20074;-81
2023/12/16 15:44:57;;;;;;;0.20;0.20;;;;;;;;;;6245551;28;20070;-80
2023/12/16 15:47:57;;;;;;;0.20;0.20;;;;;;;;;;6259160;28;20035;-81
2023/12/16 15:50:58;;;;;;;0.20;0.20;;;;;;;;;;6255737;28;20021;-81
2023/12/16 15:53:58;;;;;;;0.20;0.20;;;;;;;;;;6261762;28;20025;-80
2023/12/16 15:56:59;;;;;;;0.20;0.20;;;;;;;;;;6265889;28;20079;-80
2023/12/16 16:00:00;;;;;;;0.20;0.20;;;;;;;;;;6261131;28;20031;-80
2023/12/16 16:03:00;;;;;;;0.20;0.20;;;;;;;;;;6247949;28;20147;-79
2023/12/16 16:06:00;;;;;;;0.20;0.20;;;;;;;;;;6265433;28;20052;-80
2023/12/16 16:09:01;;;;;;;0.20;0.20;;;;;;;;;;6249693;28;20468;-80
2023/12/16 16:12:01;;;;;;;0.20;0.20;;;;;;;;;;6262628;28;20056;-80
2023/12/16 16:15:03;;;;;;;0.20;0.20;;;;;;;;;;6269140;28;20028;-80
2023/12/16 16:18:03;;;;;;;0.20;0.20;;;;;;;;;;6270295;28;20037;-80
2023/12/16 16:21:03;;;;;;;0.20;0.20;;;;;;;;;;6273099;28;20051;-80
2023/12/16 16:24:04;;;;;;;0.20;0.20;;;;;;;;;;6281847;28;20016;-75
2023/12/16 16:27:04;;;;;;;0.20;0.20;;;;;;;;;;6272855;28;20025;-76
2023/12/16 16:30:05;;;;;;;0.20;0.20;;;;;;;;;;6265438;28;20194;-75
2023/12/16 16:33:05;;;;;;;0.20;0.20;;;;;;;;;;6247920;28;20419;-80
2023/12/16 16:36:05;;;;;;;0.20;0.20;;;;;;;;;;6243631;28;20060;-80
2023/12/16 16:39:07;;;;;;;0.20;0.20;;;;;;;;;;6247806;28;20423;-80
2023/12/16 16:42:08;;;;;;;0.20;0.20;;;;;;;;;;6242642;28;20119;-80
2023/12/16 16:45:08;;;;;;;0.20;0.20;;;;;;;;;;6245503;28;20426;-80
2023/12/16 16:48:08;;;;;;;0.20;0.20;;;;;;;;;;6253818;28;20043;-80
2023/12/16 16:51:10;;;;;;;0.20;0.20;;;;;;;;;;6248842;28;20021;-80
2023/12/16 16:54:13;;;;;;;0.20;0.20;;;;;;;;;;6249896;28;20036;-80
2023/12/16 16:57:14;;;;;;;0.20;0.20;;;;;;;;;;6257876;28;20021;-80
2023/12/16 17:00:19;;;;;;;0.20;0.20;;;;;;;;;;6241142;28;20021;-80
2023/12/16 17:03:19;;;;;;;0.20;0.20;;;;;;;;;;6243539;28;20449;-80
2023/12/16 17:06:19;;;;;;;0.20;0.20;;;;;;;;;;6254451;28;20049;-80
2023/12/16 17:09:19;;;;;;;0.20;0.20;;;;;;;;;;6244388;28;20026;-80
2023/12/16 17:12:20;;;;;;;0.20;0.20;;;;;;;;;;6252934;28;20022;-80
2023/12/16 17:15:20;;;;;;;0.20;0.20;;;;;;;;;;6252100;28;20054;-80
2023/12/16 17:18:23;;;;;;;0.20;0.20;;;;;;;;;;6258840;28;20033;-80
2023/12/16 17:21:23;;;;;;;0.20;0.20;;;;;;;;;;6255312;28;20162;-80
2023/12/16 17:24:24;;;;;;;0.20;0.20;;;;;;;;;;6248128;28;20475;-80
2023/12/16 17:27:24;;;;;;;0.20;0.20;;;;;;;;;;6248556;28;20107;-80
2023/12/16 17:30:24;;;;;;;0.20;0.20;;;;;;;;;;6251534;28;20021;-80
2023/12/16 17:33:24;;;;;;;0.20;0.20;;;;;;;;;;6245442;28;20017;-75
2023/12/16 17:36:25;;;;;;;0.20;0.20;;;;;;;;;;6254123;28;20123;-75
2023/12/16 17:39:27;;;;;;;0.20;0.20;;;;;;;;;;6260710;28;20075;-75
2023/12/16 17:42:27;;;;;;;0.20;0.20;;;;;;;;;;6249949;28;20079;-80
2023/12/16 17:45:28;;;;;;;0.20;0.20;;;;;;;;;;6259927;28;20434;-80
2023/12/16 17:48:30;;;;;;;0.20;0.20;;;;;;;;;;6257915;28;20025;-80
2023/12/16 17:51:30;;;;;;;;;;;;;;;;;;6260133;28;20021;-80
2023/12/16 17:54:30;;;;;;;0.20;0.20;;;;;;;;;;6265932;28;20418;-80
2023/12/16 17:57:31;;;;;;;0.20;0.20;;;;;;;;;;6260551;28;20473;-80
2023/12/16 18:00:31;;;;;;;0.20;0.20;;;;;;;;;;6245536;28;20024;-80
2023/12/16 18:03:31;;;;;;;0.20;0.20;;;;;;;;;;6245988;28;20104;-79